KRKP/RKP METAR and TAF weather

Enter ICAO airport designator
Station Type Date Time Source
KRKP METAR 2019/10/23 12:53 UTC NOAA

KRKP 231253Z AUTO 13006KT 8SM CLR 23/17 A3006 RMK AO2 SLP179 T02330172


Station Type Date Time Source
KRKP Decoded METAR 2019/10/23 12:53 UTC NOAA

ROCKPORT ARANSAS COUNTY AIRPORT , TX, United States (KRKP) 28-05N 97-03W 6M
Oct 23, 2019 - 08:53 AM EDT / 2019.10.23 1253 UTC
Wind: from the SE (130 degrees) at 7 MPH (6 KT):0
Visibility: 8 mile(s):0
Sky conditions: clear
Temperature: 73.9 F (23.3 C)
Dew Point: 63.0 F (17.2 C)
Relative Humidity: 68%
Pressure (altimeter): 30.06 in. Hg (1017 hPa)
ob: KRKP 231253Z AUTO 13006KT 8SM CLR 23/17 A3006 RMK AO2 SLP179 T02330172
cycle: 13

Station Type Date Time Source
KRKP TAF UTC NOAA

Error!

Example: see airport list